createdAt,value
2018-04-08T00:00:26.569Z,12.60
2018-04-08T00:02:52.966Z,12.40
2018-04-08T00:05:19.434Z,12.30
2018-04-08T00:07:45.984Z,12.30
2018-04-08T00:10:12.403Z,12.30
2018-04-08T00:12:38.811Z,12.30
2018-04-08T00:15:05.297Z,12.20
2018-04-08T00:17:31.823Z,12.30
2018-04-08T00:19:58.304Z,12.30
2018-04-08T00:22:24.717Z,12.20
2018-04-08T00:24:51.453Z,12.20
2018-04-08T00:27:18.646Z,12.10
2018-04-08T00:29:45.003Z,12.10
2018-04-08T00:32:11.430Z,12.10
2018-04-08T00:34:37.871Z,12.10
2018-04-08T00:37:04.395Z,12.20
2018-04-08T00:39:30.810Z,12.20
2018-04-08T00:41:57.209Z,12.20
2018-04-08T00:44:23.608Z,12.20
2018-04-08T00:46:50.762Z,12.10
2018-04-08T00:49:17.942Z,12.10
2018-04-08T00:51:44.373Z,12.00
2018-04-08T00:54:29.191Z,12.10
2018-04-08T00:56:55.677Z,12.10
2018-04-08T00:59:22.111Z,12.10
2018-04-08T01:01:48.547Z,12.10
2018-04-08T01:04:14.951Z,12.00
2018-04-08T01:06:42.158Z,11.90
2018-04-08T01:09:08.665Z,11.80
2018-04-08T01:11:35.218Z,11.80
2018-04-08T01:14:01.677Z,11.80
2018-04-08T01:16:28.229Z,11.90
2018-04-08T01:18:56.125Z,11.90
2018-04-08T01:21:22.529Z,11.80
2018-04-08T01:23:48.962Z,11.70
2018-04-08T01:26:15.396Z,11.50
2018-04-08T01:28:41.797Z,11.40
2018-04-08T01:31:08.191Z,11.30
2018-04-08T01:33:34.593Z,11.30
2018-04-08T01:36:01.027Z,11.20
2018-04-08T01:38:27.514Z,11.20
2018-04-08T01:40:56.375Z,11.30
2018-04-08T01:43:22.801Z,11.20
2018-04-08T01:45:49.240Z,11.20
2018-04-08T01:48:15.627Z,11.30
2018-04-08T01:50:42.038Z,11.30
2018-04-08T01:53:08.426Z,11.30
2018-04-08T01:55:34.914Z,11.30
2018-04-08T01:58:02.070Z,11.20
2018-04-08T02:00:28.581Z,11.10
2018-04-08T02:02:54.957Z,11.00
2018-04-08T02:05:21.395Z,11.00
2018-04-08T02:07:47.799Z,11.00
2018-04-08T02:10:14.958Z,10.80
2018-04-08T02:12:41.349Z,10.80
2018-04-08T02:15:07.815Z,10.80
2018-04-08T02:17:34.215Z,10.70
2018-04-08T02:20:00.658Z,10.70
2018-04-08T02:22:27.050Z,10.70
2018-04-08T02:24:53.507Z,10.70
2018-04-08T02:27:19.906Z,10.60
2018-04-08T02:29:46.363Z,10.60
2018-04-08T02:32:12.825Z,10.60
2018-04-08T02:34:39.243Z,10.60
2018-04-08T02:37:05.675Z,10.60
2018-04-08T02:39:32.850Z,10.50
2018-04-08T02:41:59.280Z,10.50
2018-04-08T02:44:25.781Z,10.50
2018-04-08T02:46:52.234Z,10.40
2018-04-08T02:49:19.362Z,10.30
2018-04-08T02:51:45.857Z,10.30
2018-04-08T02:54:12.360Z,10.40
2018-04-08T02:56:39.521Z,10.30
2018-04-08T02:59:05.948Z,10.30
2018-04-08T03:01:32.477Z,10.40
2018-04-08T03:03:58.872Z,10.40
2018-04-08T03:06:25.410Z,10.40
2018-04-08T03:08:52.698Z,10.30
2018-04-08T03:11:19.175Z,10.30
2018-04-08T03:13:45.561Z,10.30
2018-04-08T03:16:12.000Z,10.30
2018-04-08T03:18:38.436Z,10.20
2018-04-08T03:21:04.932Z,10.20
2018-04-08T03:23:31.435Z,10.20
2018-04-08T03:25:57.875Z,10.20
2018-04-08T03:28:24.298Z,10.30
2018-04-08T03:30:50.715Z,10.20
2018-04-08T03:33:17.155Z,10.30
2018-04-08T03:35:43.568Z,10.20
2018-04-08T03:38:09.966Z,10.20
2018-04-08T03:40:37.075Z,10.20
2018-04-08T03:43:03.477Z,10.20
2018-04-08T03:45:29.896Z,10.20
2018-04-08T03:47:56.319Z,10.10
2018-04-08T03:50:22.744Z,10.00
2018-04-08T03:52:49.155Z,10.10
2018-04-08T03:55:16.379Z,10.20
2018-04-08T03:57:42.796Z,10.20
2018-04-08T04:00:09.420Z,10.20
2018-04-08T04:02:36.660Z,10.20
2018-04-08T04:05:03.429Z,10.20
2018-04-08T04:07:29.894Z,10.00
2018-04-08T04:09:56.325Z,10.00
2018-04-08T04:12:23.537Z,10.00
2018-04-08T04:14:49.941Z,10.00
2018-04-08T04:17:16.344Z,10.00
2018-04-08T04:20:01.100Z,10.10
2018-04-08T04:22:45.843Z,10.20
2018-04-08T04:25:31.427Z,10.20
2018-04-08T04:27:58.699Z,10.00
2018-04-08T04:30:25.826Z,10.00
2018-04-08T04:32:52.260Z,10.00
2018-04-08T04:35:18.716Z,9.90
2018-04-08T04:37:45.221Z,9.90
2018-04-08T04:40:11.667Z,9.90
2018-04-08T04:42:38.034Z,9.90
2018-04-08T04:45:04.538Z,9.90
2018-04-08T04:47:30.992Z,9.90
2018-04-08T04:49:57.485Z,9.90
2018-04-08T04:52:23.867Z,9.80
2018-04-08T04:54:50.299Z,9.80
2018-04-08T04:57:16.849Z,9.70
2018-04-08T04:59:43.241Z,9.60
2018-04-08T05:02:10.946Z,9.50
2018-04-08T05:04:37.389Z,9.50
2018-04-08T05:07:03.921Z,9.50
2018-04-08T05:09:30.309Z,9.50
2018-04-08T05:11:56.790Z,9.60
2018-04-08T05:14:23.175Z,9.60
2018-04-08T05:16:49.766Z,9.70
2018-04-08T05:19:16.114Z,9.70
2018-04-08T05:21:42.609Z,9.70
2018-04-08T05:24:08.988Z,9.70
2018-04-08T05:26:36.212Z,9.60
2018-04-08T05:29:02.602Z,9.60
2018-04-08T05:31:29.094Z,9.70
2018-04-08T05:33:56.238Z,9.60
2018-04-08T05:36:22.697Z,9.60
2018-04-08T05:38:49.218Z,9.50
2018-04-08T05:41:16.470Z,9.60
2018-04-08T05:43:42.891Z,9.60
2018-04-08T05:46:10.248Z,9.60
2018-04-08T05:48:37.433Z,9.60
2018-04-08T05:51:03.852Z,9.60
2018-04-08T05:53:31.107Z,9.70
2018-04-08T05:55:57.529Z,9.80
2018-04-08T05:58:23.945Z,9.80
2018-04-08T06:00:50.293Z,9.90
2018-04-08T06:03:16.731Z,9.80
2018-04-08T06:05:43.118Z,9.90
2018-04-08T06:08:09.702Z,10.00
2018-04-08T06:10:36.119Z,10.10
2018-04-08T06:13:02.607Z,10.20
2018-04-08T06:15:29.832Z,10.20
2018-04-08T06:17:56.251Z,10.20
2018-04-08T06:20:22.714Z,10.30
2018-04-08T06:22:49.146Z,10.40
2018-04-08T06:25:15.614Z,10.50
2018-04-08T06:27:42.033Z,10.60
2018-04-08T06:30:09.202Z,10.80
2018-04-08T06:32:36.355Z,10.90
2018-04-08T06:35:02.837Z,10.90
2018-04-08T06:37:29.490Z,11.10
2018-04-08T06:39:55.958Z,11.10
2018-04-08T06:42:22.429Z,11.20
2018-04-08T06:44:48.952Z,11.30
2018-04-08T06:47:15.432Z,11.50
2018-04-08T06:49:41.999Z,11.50
2018-04-08T06:52:08.472Z,11.60
2018-04-08T06:54:35.045Z,11.70
2018-04-08T06:57:01.540Z,11.80
2018-04-08T06:59:28.081Z,11.90
2018-04-08T07:01:54.530Z,12.00
2018-04-08T07:04:21.722Z,12.20
2018-04-08T07:06:48.154Z,12.20
2018-04-08T07:09:14.583Z,12.30
2018-04-08T07:11:41.026Z,12.40
2018-04-08T07:14:07.462Z,12.50
2018-04-08T07:16:33.869Z,12.50
2018-04-08T07:19:00.358Z,12.60
2018-04-08T07:21:26.833Z,12.70
2018-04-08T07:23:53.251Z,12.80
2018-04-08T07:26:19.779Z,12.90
2018-04-08T07:28:46.949Z,13.20
2018-04-08T07:31:14.352Z,13.10
2018-04-08T07:33:40.762Z,13.30
2018-04-08T07:36:07.246Z,13.30
2018-04-08T07:38:33.727Z,13.40
2018-04-08T07:41:00.200Z,13.50
2018-04-08T07:43:27.368Z,13.70
2018-04-08T07:45:54.610Z,13.80
2018-04-08T07:48:21.804Z,13.90
2018-04-08T07:50:48.245Z,13.80
2018-04-08T07:53:14.695Z,13.90
2018-04-08T07:55:41.204Z,14.00
2018-04-08T07:58:07.627Z,14.10
2018-04-08T08:00:34.773Z,14.20
2018-04-08T08:03:01.282Z,14.20
2018-04-08T08:05:27.951Z,14.30
2018-04-08T08:07:54.469Z,14.40
2018-04-08T08:10:20.887Z,14.40
2018-04-08T08:12:47.354Z,14.40
2018-04-08T08:15:13.836Z,14.40
2018-04-08T08:17:41.043Z,14.70
2018-04-08T08:20:07.462Z,14.70
2018-04-08T08:22:33.986Z,14.80
2018-04-08T08:25:00.382Z,14.90
2018-04-08T08:27:27.624Z,15.20
2018-04-08T08:29:54.862Z,15.30
2018-04-08T08:32:21.273Z,15.30
2018-04-08T08:34:47.765Z,15.40
2018-04-08T08:37:14.433Z,15.50
2018-04-08T08:39:40.879Z,15.60
2018-04-08T08:42:07.326Z,15.60
2018-04-08T08:44:33.832Z,15.70
2018-04-08T08:47:00.292Z,15.80
2018-04-08T08:49:27.557Z,16.00
2018-04-08T08:51:53.959Z,16.00
2018-04-08T08:54:20.482Z,16.10
2018-04-08T08:56:46.915Z,16.20
2018-04-08T08:59:13.367Z,16.20
2018-04-08T09:01:39.833Z,16.30
2018-04-08T09:04:06.362Z,16.40
2018-04-08T09:06:33.670Z,16.60
2018-04-08T09:09:01.005Z,16.70
2018-04-08T09:11:27.492Z,16.70
2018-04-08T09:13:54.682Z,16.80
2018-04-08T09:16:21.251Z,16.80
2018-04-08T09:18:48.527Z,16.90
2018-04-08T09:21:21.160Z,17.00
2018-04-08T09:26:51.883Z,17.00
2018-04-08T09:29:18.376Z,17.10
2018-04-08T09:31:44.922Z,17.30
2018-04-08T09:34:11.445Z,17.30
2018-04-08T09:36:38.101Z,17.40
2018-04-08T09:39:04.760Z,17.50
2018-04-08T09:41:31.195Z,17.50
2018-04-08T09:43:57.736Z,17.70
2018-04-08T09:46:24.216Z,17.80
2018-04-08T09:48:50.694Z,17.90
2018-04-08T09:51:17.118Z,18.00
2018-04-08T09:53:43.590Z,18.10
2018-04-08T09:56:10.033Z,18.10
2018-04-08T09:58:38.183Z,18.20
2018-04-08T10:04:12.832Z,18.30
2018-04-08T10:06:39.280Z,18.40
2018-04-08T10:09:05.766Z,18.50
2018-04-08T10:11:32.213Z,18.40
2018-04-08T10:13:58.802Z,18.30
2018-04-08T10:16:25.992Z,18.30
2018-04-08T10:18:52.426Z,18.30
2018-04-08T10:21:18.870Z,18.40
2018-04-08T10:23:45.327Z,18.50
2018-04-08T10:26:11.765Z,18.60
2018-04-08T10:28:38.183Z,18.70
2018-04-08T10:31:04.581Z,18.80
2018-04-08T10:33:30.989Z,18.80
2018-04-08T10:35:58.150Z,18.80
2018-04-08T10:38:24.617Z,18.80
2018-04-08T10:40:51.087Z,18.90
2018-04-08T10:43:17.556Z,19.00
2018-04-08T10:45:43.991Z,19.00
2018-04-08T10:48:10.439Z,19.10
2018-04-08T10:50:36.797Z,19.20
2018-04-08T10:53:03.212Z,19.30
2018-04-08T10:55:29.654Z,19.30
2018-04-08T10:57:56.347Z,19.40
2018-04-08T11:00:22.762Z,19.40
2018-04-08T11:02:49.930Z,19.60
2018-04-08T11:05:16.325Z,19.50
2018-04-08T11:07:43.506Z,19.70
2018-04-08T11:10:09.991Z,19.70
2018-04-08T11:12:37.218Z,19.90
2018-04-08T11:15:03.705Z,19.90
2018-04-08T11:17:30.243Z,19.90
2018-04-08T11:19:57.389Z,20.00
2018-04-08T11:22:23.774Z,19.90
2018-04-08T11:24:50.211Z,20.00
2018-04-08T11:27:16.713Z,20.00
2018-04-08T11:29:43.202Z,20.10
2018-04-08T11:32:10.378Z,20.30
2018-04-08T11:34:36.788Z,20.20
2018-04-08T11:37:03.207Z,20.30
2018-04-08T11:39:30.361Z,20.40
2018-04-08T11:41:57.536Z,20.50
2018-04-08T11:44:24.014Z,20.50
2018-04-08T11:46:51.236Z,20.60
2018-04-08T11:49:17.705Z,20.60
2018-04-08T11:51:44.135Z,20.70
2018-04-08T11:54:10.634Z,20.80
2018-04-08T11:56:37.110Z,20.80
2018-04-08T11:59:03.560Z,20.70
2018-04-08T12:01:30.041Z,20.60
2018-04-08T12:03:56.509Z,20.70
2018-04-08T12:06:23.690Z,20.80
2018-04-08T12:08:50.151Z,20.80
2018-04-08T12:11:16.542Z,20.80
2018-04-08T12:13:43.774Z,20.90
2018-04-08T12:16:10.251Z,20.90
2018-04-08T12:18:36.686Z,21.00
2018-04-08T12:21:03.182Z,21.00
2018-04-08T12:23:29.644Z,21.00
2018-04-08T12:25:56.087Z,21.10
2018-04-08T12:28:22.571Z,21.30
2018-04-08T12:30:50.471Z,21.40
2018-04-08T12:33:16.934Z,21.40
2018-04-08T12:35:43.328Z,21.40
2018-04-08T12:38:10.493Z,21.50
2018-04-08T12:40:36.936Z,21.50
2018-04-08T12:43:03.570Z,21.50
2018-04-08T12:45:30.128Z,21.50
2018-04-08T12:47:56.598Z,21.70
2018-04-08T12:50:23.014Z,21.70
2018-04-08T12:52:50.142Z,21.80
2018-04-08T12:55:17.366Z,21.80
2018-04-08T12:57:44.608Z,21.80
2018-04-08T13:00:11.103Z,21.90
2018-04-08T13:02:38.286Z,21.90
2018-04-08T13:05:04.702Z,21.90
2018-04-08T13:07:31.158Z,21.90
2018-04-08T13:09:57.595Z,21.80
2018-04-08T13:12:24.047Z,21.70
2018-04-08T13:14:50.456Z,21.70
2018-04-08T13:17:16.891Z,21.80
2018-04-08T13:19:43.354Z,21.90
2018-04-08T13:22:09.807Z,22.10
2018-04-08T13:24:36.987Z,22.30
2018-04-08T13:27:03.466Z,22.30
2018-04-08T13:29:29.880Z,22.30
2018-04-08T13:31:56.277Z,22.40
2018-04-08T13:34:22.837Z,22.40
2018-04-08T13:36:49.258Z,22.40
2018-04-08T13:39:15.749Z,22.40
2018-04-08T13:41:42.145Z,22.40
2018-04-08T13:44:08.579Z,22.50
2018-04-08T13:46:34.934Z,22.50
2018-04-08T13:49:01.328Z,22.50
2018-04-08T13:51:27.720Z,22.60
2018-04-08T13:53:54.187Z,22.60
2018-04-08T13:56:20.682Z,22.70
2018-04-08T13:58:47.821Z,22.90
2018-04-08T14:01:14.233Z,22.90
2018-04-08T14:03:40.681Z,22.90
2018-04-08T14:06:07.074Z,23.00
2018-04-08T14:08:34.246Z,23.10
2018-04-08T14:11:00.679Z,23.10
2018-04-08T14:13:27.054Z,23.20
2018-04-08T14:15:53.499Z,23.20
2018-04-08T14:18:19.889Z,23.30
2018-04-08T14:20:47.063Z,23.40
2018-04-08T14:23:13.470Z,23.40
2018-04-08T14:25:39.874Z,23.40
2018-04-08T14:28:06.286Z,23.40
2018-04-08T14:30:32.785Z,23.40
2018-04-08T14:32:59.230Z,23.30
2018-04-08T14:35:25.591Z,23.30
2018-04-08T14:37:52.033Z,23.40
2018-04-08T14:40:18.458Z,23.40
2018-04-08T14:42:44.989Z,23.50
2018-04-08T14:45:11.403Z,23.60
2018-04-08T14:47:38.048Z,23.60
2018-04-08T14:50:04.441Z,23.60
2018-04-08T14:52:30.826Z,23.70
2018-04-08T14:54:57.243Z,23.90
2018-04-08T14:57:23.687Z,24.00
2018-04-08T14:59:50.996Z,24.00
2018-04-08T15:02:17.548Z,24.00
2018-04-08T15:04:44.005Z,24.10
2018-04-08T15:07:10.464Z,24.20
2018-04-08T15:09:37.714Z,24.50
2018-04-08T15:12:04.091Z,24.40
2018-04-08T15:14:31.391Z,25.10
2018-04-08T15:16:57.855Z,25.00
2018-04-08T15:19:24.349Z,25.20
2018-04-08T15:21:50.983Z,25.00
2018-04-08T15:24:18.175Z,25.80
2018-04-08T15:26:44.658Z,25.80
2018-04-08T15:29:11.115Z,26.10
2018-04-08T15:31:38.307Z,26.70
2018-04-08T15:34:05.399Z,27.10
2018-04-08T15:36:32.595Z,26.50
2018-04-08T15:38:59.061Z,26.50
2018-04-08T15:41:25.522Z,26.30
2018-04-08T15:43:51.924Z,26.20
2018-04-08T15:46:18.422Z,26.30
2018-04-08T15:48:44.917Z,26.00
2018-04-08T15:51:12.161Z,25.60
2018-04-08T15:53:38.578Z,25.60
2018-04-08T15:56:05.002Z,25.20
2018-04-08T15:58:31.402Z,24.90
2018-04-08T16:00:57.766Z,24.70
2018-04-08T16:03:24.832Z,24.50
2018-04-08T16:05:51.974Z,24.30
2018-04-08T16:08:18.436Z,24.30
2018-04-08T16:10:45.613Z,24.30
2018-04-08T16:13:12.101Z,24.30
2018-04-08T16:15:38.496Z,24.20
2018-04-08T16:18:04.934Z,24.10
2018-04-08T16:20:31.461Z,24.00
2018-04-08T16:22:57.809Z,23.90
2018-04-08T16:25:24.249Z,23.80
2018-04-08T16:27:50.705Z,23.80
2018-04-08T16:30:17.134Z,23.70
2018-04-08T16:32:44.295Z,23.60
2018-04-08T16:35:10.831Z,23.60
2018-04-08T16:37:37.258Z,23.50
2018-04-08T16:40:03.751Z,23.40
2018-04-08T16:42:30.154Z,23.40
2018-04-08T16:44:56.622Z,23.40
2018-04-08T16:47:23.860Z,23.30
2018-04-08T16:49:51.011Z,23.30
2018-04-08T16:52:17.534Z,23.20
2018-04-08T16:54:43.932Z,23.20
2018-04-08T16:57:10.335Z,23.10
2018-04-08T16:59:37.548Z,23.10
2018-04-08T17:02:04.032Z,23.00
2018-04-08T17:04:31.224Z,23.10
2018-04-08T17:06:58.326Z,23.10
2018-04-08T17:09:24.774Z,23.10
2018-04-08T17:11:51.230Z,23.00
2018-04-08T17:14:17.611Z,22.90
2018-04-08T17:16:44.842Z,22.50
2018-04-08T17:19:11.330Z,22.50
2018-04-08T17:21:37.788Z,22.50
2018-04-08T17:24:04.205Z,22.40
2018-04-08T17:26:30.656Z,22.30
2018-04-08T17:28:57.171Z,22.20
2018-04-08T17:31:23.592Z,22.20
2018-04-08T17:33:50.924Z,22.10
2018-04-08T17:36:17.329Z,22.10
2018-04-08T17:38:44.491Z,21.90
2018-04-08T17:41:11.675Z,21.90
2018-04-08T17:43:38.218Z,21.90
2018-04-08T17:46:04.658Z,21.80
2018-04-08T17:48:31.388Z,21.80
2018-04-08T17:50:57.829Z,21.80
2018-04-08T17:53:24.239Z,21.70
2018-04-08T17:55:50.713Z,21.70
2018-04-08T17:58:17.931Z,21.50
2018-04-08T18:00:44.418Z,21.50
2018-04-08T18:03:11.642Z,21.40
2018-04-08T18:05:38.132Z,21.30
2018-04-08T18:08:04.654Z,21.30
2018-04-08T18:10:31.113Z,21.20
2018-04-08T18:12:57.595Z,21.00
2018-04-08T18:15:24.085Z,20.90
2018-04-08T18:17:50.553Z,20.90
2018-04-08T18:20:17.036Z,20.80
2018-04-08T18:22:43.406Z,20.70
2018-04-08T18:25:09.949Z,20.60
2018-04-08T18:27:37.131Z,20.50
2018-04-08T18:30:03.626Z,20.40
2018-04-08T18:32:30.146Z,20.40
2018-04-08T18:34:56.606Z,20.30
2018-04-08T18:37:23.093Z,20.30
2018-04-08T18:39:49.494Z,20.20
2018-04-08T18:42:15.985Z,20.00
2018-04-08T18:44:43.854Z,19.90
2018-04-08T18:47:10.350Z,19.90
2018-04-08T18:52:10.031Z,19.70
2018-04-08T18:54:37.302Z,19.60
2018-04-08T18:57:03.815Z,19.60
2018-04-08T18:59:30.276Z,19.60
2018-04-08T19:01:56.770Z,19.50
2018-04-08T19:04:23.234Z,19.40
2018-04-08T19:06:49.707Z,19.30
2018-04-08T19:09:16.152Z,19.30
2018-04-08T19:11:43.430Z,19.00
2018-04-08T19:14:09.963Z,19.10
2018-04-08T19:16:37.123Z,18.90
2018-04-08T19:19:03.688Z,18.90
2018-04-08T19:21:30.177Z,18.80
2018-04-08T19:23:57.470Z,18.50
2018-04-08T19:26:23.969Z,18.40
2018-04-08T19:28:51.321Z,18.40
2018-04-08T19:31:17.956Z,18.40
2018-04-08T19:33:44.430Z,18.40
2018-04-08T19:36:11.028Z,18.20
2018-04-08T19:38:37.518Z,18.20
2018-04-08T19:41:04.010Z,18.10
2018-04-08T19:43:30.613Z,18.00
2018-04-08T19:45:57.190Z,17.90
2018-04-08T19:48:23.627Z,17.80
2018-04-08T19:50:50.223Z,17.80
2018-04-08T19:53:16.825Z,17.80
2018-04-08T19:55:46.808Z,17.80
2018-04-08T19:58:15.047Z,17.80
2018-04-08T20:00:42.557Z,17.40
2018-04-08T20:03:09.160Z,17.40
2018-04-08T20:05:35.702Z,17.30
2018-04-08T20:08:02.343Z,17.30
2018-04-08T20:10:28.853Z,17.30
2018-04-08T20:12:55.483Z,17.30
2018-04-08T20:15:22.018Z,17.30
2018-04-08T20:17:49.294Z,17.00
2018-04-08T20:20:15.767Z,17.00
2018-04-08T20:22:42.331Z,16.90
2018-04-08T20:25:09.555Z,16.80
2018-04-08T20:27:36.052Z,16.80
2018-04-08T20:30:02.519Z,16.80
2018-04-08T20:32:28.997Z,16.90
2018-04-08T20:34:55.760Z,16.80
2018-04-08T20:37:22.157Z,16.80
2018-04-08T20:39:48.711Z,16.80
2018-04-08T20:42:15.199Z,16.70
2018-04-08T20:44:41.712Z,16.70
2018-04-08T20:47:08.195Z,16.60
2018-04-08T20:49:34.688Z,16.60
2018-04-08T20:52:01.174Z,16.50
2018-04-08T20:54:27.676Z,16.50
2018-04-08T20:56:54.903Z,16.30
2018-04-08T20:59:21.354Z,16.20
2018-04-08T21:01:47.799Z,16.20
2018-04-08T21:04:14.266Z,16.20
2018-04-08T21:06:40.821Z,16.10
2018-04-08T21:09:08.084Z,16.10
2018-04-08T21:11:34.544Z,16.10
2018-04-08T21:14:01.879Z,16.00
2018-04-08T21:16:28.326Z,15.90
2018-04-08T21:18:54.884Z,16.00
2018-04-08T21:21:22.063Z,15.90
2018-04-08T21:23:48.673Z,15.90
2018-04-08T21:26:15.179Z,15.90
2018-04-08T21:28:42.357Z,15.90
2018-04-08T21:31:08.822Z,15.90
2018-04-08T21:33:35.296Z,15.70
2018-04-08T21:36:02.499Z,15.40
2018-04-08T21:38:28.992Z,15.40
2018-04-08T21:40:55.452Z,15.50
2018-04-08T21:43:21.953Z,15.60
2018-04-08T21:45:49.159Z,15.50
2018-04-08T21:48:15.596Z,15.50
2018-04-08T21:50:42.081Z,15.50
2018-04-08T21:53:08.567Z,15.50
2018-04-08T21:55:35.015Z,15.50
2018-04-08T21:58:02.317Z,15.40
2018-04-08T22:00:29.508Z,15.40
2018-04-08T22:02:56.078Z,15.40
2018-04-08T22:05:22.506Z,15.40
2018-04-08T22:07:48.932Z,15.20
2018-04-08T22:10:16.091Z,15.10
2018-04-08T22:12:42.530Z,15.10
2018-04-08T22:15:08.971Z,15.00
2018-04-08T22:17:35.385Z,15.00
2018-04-08T22:20:01.822Z,14.90
2018-04-08T22:22:28.252Z,14.80
2018-04-08T22:24:55.439Z,14.80
2018-04-08T22:27:21.834Z,14.80
2018-04-08T22:29:48.248Z,14.70
2018-04-08T22:32:15.395Z,14.70
2018-04-08T22:34:41.865Z,14.70
2018-04-08T22:37:08.258Z,14.70
2018-04-08T22:39:35.420Z,14.60
2018-04-08T22:42:01.842Z,14.50
2018-04-08T22:44:29.021Z,14.50
2018-04-08T22:46:55.528Z,14.50
2018-04-08T22:49:31.970Z,14.40
2018-04-08T22:51:58.379Z,14.40
2018-04-08T22:54:24.887Z,14.40
2018-04-08T22:56:51.320Z,14.40
2018-04-08T22:59:17.727Z,14.30
2018-04-08T23:01:44.176Z,14.30
2018-04-08T23:04:10.599Z,14.40
2018-04-08T23:06:37.121Z,14.40
2018-04-08T23:09:04.527Z,14.40
2018-04-08T23:11:30.993Z,14.30
2018-04-08T23:13:58.159Z,14.10
2018-04-08T23:16:24.702Z,14.10
2018-04-08T23:18:51.144Z,14.10
2018-04-08T23:21:17.666Z,14.10
2018-04-08T23:23:44.102Z,14.10
2018-04-08T23:26:10.502Z,14.00
2018-04-08T23:28:36.952Z,14.10
2018-04-08T23:31:03.450Z,14.10
2018-04-08T23:33:29.895Z,14.10
2018-04-08T23:35:56.318Z,14.10
2018-04-08T23:38:22.741Z,14.10
2018-04-08T23:40:49.213Z,14.20
2018-04-08T23:43:15.609Z,14.20
2018-04-08T23:45:42.042Z,14.00
2018-04-08T23:48:08.445Z,13.90
2018-04-08T23:50:34.925Z,13.90
2018-04-08T23:53:01.402Z,13.90
2018-04-08T23:55:27.818Z,13.90
2018-04-08T23:57:54.240Z,13.80
